Time;durP1;ratioP1;P1;durP2;ratioP2;P2;SDS_P1;SDS_P2;PMS_P1;PMS_P2;Temp;Humidity;BMP_temperature;BMP_pressure;BME280_temperature;BME280_humidity;BME280_pressure;Samples;Min_cycle;Max_cycle;Signal;HPM_P1;HPM_P2
2022/04/07 00:01:42;;;;;;;4.03;3.55;;;;;;;13.84;49.41;98814.23;1814954;78;21045;-60
2022/04/07 00:04:09;;;;;;;3.20;2.90;;;;;;;13.84;49.41;98811.03;1810597;79;21493;-61
2022/04/07 00:06:37;;;;;;;3.85;3.27;;;;;;;13.84;49.40;98804.89;1784968;80;20982;-59
2022/04/07 00:09:05;;;;;;;3.33;3.02;;;;;;;13.83;49.39;98802.74;1785003;80;21025;-59
2022/04/07 00:11:32;;;;;;;3.33;3.00;;;;;;;13.82;49.38;98801.09;1785068;80;21247;-59
2022/04/07 00:14:00;;;;;;;3.33;3.02;;;;;;;13.84;49.38;98807.03;1784891;80;21076;-60
2022/04/07 00:16:26;;;;;;;3.95;3.20;;;;;;;13.83;49.39;98803.23;1785173;80;21538;-60
2022/04/07 00:18:54;;;;;;;4.05;3.27;;;;;;;13.83;49.41;98792.55;1784988;80;21018;-61
2022/04/07 00:21:25;;;;;;;3.58;3.20;;;;;;;13.83;49.41;98792.06;1786019;79;21037;-60
2022/04/07 00:23:53;;;;;;;3.58;3.05;;;;;;;13.84;49.38;98791.54;1792320;80;21162;-60
2022/04/07 00:26:20;;;;;;;3.27;2.98;;;;;;;13.83;49.38;98792.06;1793150;79;20975;-59
2022/04/07 00:28:47;;;;;;;3.42;3.10;;;;;;;13.82;49.39;98789.08;1792725;80;21049;-60
2022/04/07 00:31:13;;;;;;;4.35;3.47;;;;;;;13.83;49.37;98796.06;1792664;79;21010;-59
2022/04/07 00:33:40;;;;;;;3.52;3.20;;;;;;;13.82;49.36;98794.41;1792915;80;21615;-60
2022/04/07 00:36:07;;;;;;;4.10;3.37;;;;;;;13.82;49.38;98790.41;1792777;80;21208;-59
2022/04/07 00:38:35;;;;;;;3.52;3.05;;;;;;;13.82;49.38;98787.74;1790645;79;21046;-60
2022/04/07 00:41:01;;;;;;;4.00;3.50;;;;;;;13.81;49.39;98780.78;1784981;80;21496;-60
2022/04/07 00:43:34;;;;;;;3.95;3.45;;;;;;;13.81;49.39;98778.60;1785047;80;21033;-60
2022/04/07 00:46:02;;;;;;;3.58;3.25;;;;;;;13.80;49.38;98773.79;1785081;80;21544;-61
2022/04/07 00:48:29;;;;;;;3.75;3.37;;;;;;;13.80;49.39;98776.45;1785031;80;21124;-60
2022/04/07 00:50:55;;;;;;;4.12;3.37;;;;;;;13.80;49.40;98768.97;1784884;80;21080;-60
2022/04/07 00:53:23;;;;;;;4.10;3.70;;;;;;;13.79;49.39;98764.16;1785057;80;21620;-60
2022/04/07 00:55:52;;;;;;;4.17;3.77;;;;;;;13.80;49.38;98762.30;1800343;79;21045;-59
2022/04/07 00:58:20;;;;;;;4.08;3.62;;;;;;;13.80;49.39;98762.30;1817218;79;20990;-60
2022/04/07 01:00:48;;;;;;;3.95;3.55;;;;;;;13.79;49.38;98758.82;1782132;80;21007;-59
2022/04/07 01:03:14;;;;;;;3.75;3.45;;;;;;;13.80;49.38;98754.30;1768193;81;21100;-60
2022/04/07 01:05:42;;;;;;;4.00;3.58;;;;;;;13.79;49.38;98753.97;1775864;80;21512;-60
2022/04/07 01:08:09;;;;;;;3.83;3.42;;;;;;;13.79;49.36;98754.81;1761790;80;21128;-59
2022/04/07 01:10:37;;;;;;;4.58;3.58;;;;;;;13.79;49.37;98749.97;1792771;80;21087;-61
2022/04/07 01:13:05;;;;;;;4.05;3.50;;;;;;;13.78;49.38;98743.82;1769688;79;21014;-60
2022/04/07 01:15:33;;;;;;;3.92;3.52;;;;;;;13.78;49.39;98742.48;1784901;80;21505;-59
2022/04/07 01:18:01;;;;;;;4.00;3.20;;;;;;;13.77;49.35;98735.50;1755516;81;21025;-59
2022/04/07 01:20:29;;;;;;;3.83;3.40;;;;;;;13.78;49.38;98735.00;1785001;80;21579;-59
2022/04/07 01:22:56;;;;;;;3.80;3.40;;;;;;;13.77;49.35;98731.49;1785616;80;21025;-59
2022/04/07 01:25:26;;;;;;;4.12;3.60;;;;;;;13.76;49.36;98737.36;1760230;80;21141;-59
2022/04/07 01:27:55;;;;;;;4.35;3.70;;;;;;;13.77;49.36;98730.16;1786544;80;21081;-59
2022/04/07 01:30:21;;;;;;;4.20;3.65;;;;;;;13.75;49.35;98734.40;1782756;79;21053;-60
2022/04/07 01:32:54;;;;;;;3.87;3.10;;;;;;;13.76;49.38;98732.55;1798234;79;21513;-60
2022/04/07 01:35:23;;;;;;;3.83;3.42;;;;;;;13.75;49.39;98734.40;1782711;80;21028;-59
2022/04/07 01:37:49;;;;;;;5.10;3.58;;;;;;;13.75;49.36;98729.06;1798254;79;21176;-59
2022/04/07 01:40:18;;;;;;;3.72;3.27;;;;;;;13.75;49.37;98730.89;1782805;80;21609;-60
2022/04/07 01:42:47;;;;;;;4.35;3.50;;;;;;;13.74;49.36;98731.94;1798397;79;21029;-58
2022/04/07 01:45:14;;;;;;;4.42;3.83;;;;;;;13.74;49.37;98735.94;1782680;80;20987;-59
2022/04/07 01:47:42;;;;;;;3.95;3.50;;;;;;;13.74;49.37;98735.94;1799738;79;21632;-59
2022/04/07 01:50:10;;;;;;;3.90;3.45;;;;;;;13.72;49.38;98738.81;1800806;79;21301;-60
2022/04/07 01:52:38;;;;;;;3.55;3.22;;;;;;;13.73;49.36;98739.62;1800470;79;21036;-59
2022/04/07 01:55:06;;;;;;;4.37;3.70;;;;;;;13.71;49.35;98734.53;1782885;80;21085;-59
2022/04/07 01:57:33;;;;;;;4.50;3.35;;;;;;;13.72;49.36;98739.34;1783169;80;21021;-59
2022/04/07 01:59:59;;;;;;;4.08;3.45;;;;;;;13.71;49.37;98737.69;1783194;80;20986;-59
2022/04/07 02:02:27;;;;;;;3.80;3.40;;;;;;;13.71;49.37;98738.53;1792060;80;21131;-60
2022/04/07 02:04:59;;;;;;;4.87;3.75;;;;;;;13.70;49.38;98734.73;1750261;80;21087;-59
2022/04/07 02:07:30;;;;;;;3.92;3.55;;;;;;;13.71;49.38;98741.69;1778068;80;21050;-59
2022/04/07 02:09:59;;;;;;;4.00;3.60;;;;;;;13.70;49.38;98740.88;1779533;80;21018;-60
2022/04/07 02:12:27;;;;;;;4.37;3.52;;;;;;;13.69;49.37;98737.89;1776026;80;21013;-60
2022/04/07 02:14:54;;;;;;;4.28;3.60;;;;;;;13.68;49.37;98733.61;1793832;80;21202;-60
2022/04/07 02:17:22;;;;;;;4.20;3.80;;;;;;;13.67;49.38;98731.95;1793442;80;20990;-59
2022/04/07 02:19:50;;;;;;;3.42;3.12;;;;;;;13.68;49.35;98731.46;1791393;80;21494;-60
2022/04/07 02:22:17;;;;;;;4.62;3.70;;;;;;;13.67;49.38;98732.48;1762191;81;21024;-60
2022/04/07 02:24:44;;;;;;;4.20;3.80;;;;;;;13.67;49.38;98731.14;1762237;81;21057;-60
2022/04/07 02:27:11;;;;;;;4.10;3.50;;;;;;;13.66;49.38;98735.67;1762231;81;21139;-59
2022/04/07 02:29:37;;;;;;;3.77;3.08;;;;;;;13.65;49.38;98742.02;1762169;81;21009;-60
2022/04/07 02:32:06;;;;;;;3.83;3.45;;;;;;;13.65;49.40;98739.88;1762248;81;21049;-64
2022/04/07 02:34:32;;;;;;;4.08;3.58;;;;;;;13.65;49.39;98745.22;1762509;81;21081;-59
2022/04/07 02:36:59;;;;;;;4.28;3.65;;;;;;;13.64;49.39;98733.73;1765998;80;21037;-61
2022/04/07 02:39:26;;;;;;;4.65;3.65;;;;;;;13.64;49.38;98732.92;1793628;80;21168;-61
2022/04/07 02:41:53;;;;;;;4.85;4.22;;;;;;;13.65;49.38;98725.20;1793440;80;21569;-60
2022/04/07 02:44:21;;;;;;;5.70;4.28;;;;;;;13.63;49.37;98731.27;1793552;80;21072;-60
2022/04/07 02:46:47;;;;;;;6.03;4.20;;;;;;;13.63;49.37;98730.75;1793627;80;21549;-60
2022/04/07 02:49:14;;;;;;;4.97;4.05;;;;;;;13.63;49.37;98718.73;1793626;80;21014;-60
2022/04/07 02:51:40;;;;;;;4.10;3.62;;;;;;;13.61;49.36;98723.47;1793614;80;21238;-60
2022/04/07 02:54:07;;;;;;;4.53;3.62;;;;;;;13.61;49.37;98731.48;1792353;80;21035;-59
2022/04/07 02:56:33;;;;;;;5.60;4.35;;;;;;;13.60;49.37;98721.84;1793540;79;21474;-59
2022/04/07 02:59:01;;;;;;;4.92;4.17;;;;;;;13.61;49.38;98723.99;1793502;80;21077;-59
2022/04/07 03:01:28;;;;;;;4.70;4.20;;;;;;;13.60;49.38;98720.52;1793609;80;21021;-60
2022/04/07 03:03:56;;;;;;;4.47;4.08;;;;;;;13.59;49.38;98722.05;1793451;80;21228;-59
2022/04/07 03:06:23;;;;;;;5.03;4.22;;;;;;;13.59;49.38;98731.39;1793643;80;21494;-60
2022/04/07 03:10:11;;;;;;;4.85;4.05;;;;;;;13.62;49.41;98719.78;1870290;76;28602;-60
2022/04/07 03:12:39;;;;;;;4.78;4.22;;;;;;;13.59;49.38;98723.39;1799550;78;21106;-60
2022/04/07 03:15:07;;;;;;;4.37;3.98;;;;;;;13.59;49.37;98718.05;1793897;80;21242;-62
2022/04/07 03:17:34;;;;;;;4.10;3.70;;;;;;;13.59;49.36;98720.72;1816790;78;21012;-59
2022/04/07 03:20:01;;;;;;;4.47;3.98;;;;;;;13.57;49.35;98724.93;1826434;78;21001;-59
2022/04/07 03:22:28;;;;;;;4.87;4.37;;;;;;;13.56;49.37;98726.79;1826448;78;21104;-60
2022/04/07 03:24:55;;;;;;;5.00;4.00;;;;;;;13.57;49.39;98724.93;1826458;78;20996;-60
2022/04/07 03:27:21;;;;;;;4.62;3.90;;;;;;;13.55;49.36;98718.46;1826588;78;21880;-61
2022/04/07 03:29:48;;;;;;;5.10;4.25;;;;;;;13.55;49.38;98719.80;1797158;78;20914;-60
2022/04/07 03:32:16;;;;;;;4.35;3.95;;;;;;;13.55;49.36;98722.47;1794016;79;20990;-60
2022/04/07 03:34:42;;;;;;;5.90;4.40;;;;;;;13.54;49.38;98724.84;1794043;80;21114;-59
2022/04/07 03:37:09;;;;;;;5.60;4.00;;;;;;;13.54;49.38;98723.52;1793951;80;21021;-60
2022/04/07 03:39:37;;;;;;;4.60;4.00;;;;;;;13.53;49.37;98719.72;1793995;79;21056;-60
2022/04/07 03:42:05;;;;;;;4.78;4.22;;;;;;;13.54;49.37;98718.67;1793812;80;21025;-59
2022/04/07 03:44:31;;;;;;;4.25;3.72;;;;;;;13.53;49.38;98719.72;1794316;79;21029;-60
2022/04/07 03:46:59;;;;;;;4.33;3.92;;;;;;;13.52;49.40;98716.23;1794945;78;20978;-60
2022/04/07 03:49:27;;;;;;;4.65;4.10;;;;;;;13.53;49.37;98715.72;1794022;79;21548;-59
2022/04/07 03:51:53;;;;;;;4.45;4.05;;;;;;;13.53;49.38;98718.38;1794057;80;21122;-60
2022/04/07 03:54:20;;;;;;;5.85;4.37;;;;;;;13.52;49.41;98716.73;1793970;80;20966;-60
2022/04/07 03:56:46;;;;;;;5.50;4.47;;;;;;;13.52;49.40;98718.06;1794028;80;21021;-59
2022/04/07 03:59:15;;;;;;;6.45;4.30;;;;;;;13.52;49.41;98716.23;1794015;79;21504;-59
2022/04/07 04:01:41;;;;;;;4.45;3.95;;;;;;;13.51;49.41;98707.92;1810559;78;20998;-61
2022/04/07 04:04:08;;;;;;;4.17;3.77;;;;;;;13.52;49.41;98713.57;1793945;80;21126;-59
2022/04/07 04:06:35;;;;;;;5.17;4.10;;;;;;;13.52;49.40;98711.39;1793802;80;20997;-60
2022/04/07 04:09:02;;;;;;;5.33;4.62;;;;;;;13.52;49.43;98708.73;1793952;80;21077;-59
2022/04/07 04:11:29;;;;;;;5.70;4.55;;;;;;;13.52;49.41;98704.72;1794229;79;21093;-59
2022/04/07 04:13:55;;;;;;;4.80;4.28;;;;;;;13.52;49.41;98706.90;1794259;80;21006;-59
2022/04/07 04:16:24;;;;;;;6.22;4.55;;;;;;;13.52;49.42;98704.23;1794303;79;21080;-58
2022/04/07 04:18:51;;;;;;;4.50;4.03;;;;;;;13.53;49.40;98703.19;1796585;78;21017;-60
2022/04/07 04:21:17;;;;;;;5.45;4.08;;;;;;;13.53;49.41;98697.84;1826200;78;20997;-59
2022/04/07 04:23:45;;;;;;;5.58;4.08;;;;;;;13.55;49.43;98701.12;1826128;78;21068;-61
2022/04/07 04:26:11;;;;;;;4.33;3.80;;;;;;;13.55;49.44;98706.98;1826191;78;20997;-59
2022/04/07 04:28:38;;;;;;;4.40;3.98;;;;;;;13.55;49.46;98709.12;1826155;78;21110;-60
2022/04/07 04:31:04;;;;;;;4.92;4.00;;;;;;;13.56;49.47;98709.44;1826254;78;21021;-59
2022/04/07 04:33:32;;;;;;;5.55;4.33;;;;;;;13.56;49.45;98706.77;1826058;78;21049;-59
2022/04/07 04:35:59;;;;;;;5.03;4.17;;;;;;;13.58;49.47;98703.91;1821419;78;20958;-60
2022/04/07 04:38:27;;;;;;;5.33;4.40;;;;;;;13.59;49.47;98704.71;1793657;80;21018;-60
2022/04/07 04:40:54;;;;;;;4.90;4.08;;;;;;;13.59;49.46;98701.52;1793604;80;21119;-60
2022/04/07 04:43:22;;;;;;;5.90;4.25;;;;;;;13.60;49.45;98705.84;1793518;79;21088;-59
2022/04/07 04:45:49;;;;;;;4.87;4.33;;;;;;;13.61;49.47;98713.32;1793646;80;21073;-60
2022/04/07 04:48:15;;;;;;;5.25;4.05;;;;;;;13.62;49.45;98713.61;1793790;80;21516;-60
2022/04/07 04:50:43;;;;;;;4.60;4.10;;;;;;;13.63;49.46;98708.06;1793795;80;21021;-60
2022/04/07 04:53:11;;;;;;;5.10;4.37;;;;;;;13.64;49.44;98713.72;1782518;78;21965;-60
2022/04/07 04:55:38;;;;;;;5.28;4.20;;;;;;;13.64;49.49;98712.38;1826011;78;20986;-59
2022/04/07 04:58:04;;;;;;;4.97;4.10;;;;;;;13.66;49.47;98719.66;1826127;78;21025;-60
2022/04/07 05:00:31;;;;;;;5.65;4.37;;;;;;;13.66;49.48;98714.32;1826246;78;21018;-60
2022/04/07 05:02:58;;;;;;;4.97;3.95;;;;;;;13.68;49.48;98718.12;1826093;78;21052;-59
2022/04/07 05:05:26;;;;;;;4.70;4.20;;;;;;;13.69;49.48;98711.73;1826062;78;21158;-59
2022/04/07 05:07:53;;;;;;;4.40;4.00;;;;;;;13.70;49.47;98717.39;1826188;78;21010;-59
2022/04/07 05:10:25;;;;;;;4.78;3.95;;;;;;;13.71;49.48;98715.00;1815243;78;21026;-59
2022/04/07 05:12:54;;;;;;;5.28;4.58;;;;;;;13.72;49.48;98713.98;1814530;78;20990;-60
2022/04/07 05:15:21;;;;;;;6.08;4.62;;;;;;;13.72;49.46;98717.47;1814611;79;20998;-59
2022/04/07 05:17:50;;;;;;;5.80;4.60;;;;;;;13.72;49.49;98708.13;1814670;79;21557;-58
2022/04/07 05:20:17;;;;;;;5.10;4.35;;;;;;;13.74;49.47;98705.25;1814489;79;21057;-59
2022/04/07 05:22:44;;;;;;;5.25;4.10;;;;;;;13.74;49.49;98711.39;1814828;79;21623;-60
2022/04/07 05:25:12;;;;;;;5.03;4.53;;;;;;;13.76;49.50;98712.52;1814684;78;20983;-59
2022/04/07 05:27:39;;;;;;;4.80;4.22;;;;;;;13.77;49.49;98715.48;1811244;79;20986;-61
2022/04/07 05:30:12;;;;;;;5.03;4.20;;;;;;;13.79;49.51;98711.27;1809414;79;21234;-60
2022/04/07 05:32:43;;;;;;;5.00;4.50;;;;;;;13.79;49.51;98708.10;1815110;79;21006;-60
2022/04/07 05:35:12;;;;;;;5.25;4.47;;;;;;;13.80;49.51;98711.06;1814614;78;21270;-61
2022/04/07 05:37:40;;;;;;;4.92;4.03;;;;;;;13.82;49.50;98700.98;1814879;79;21065;-60
2022/04/07 05:40:10;;;;;;;4.95;4.45;;;;;;;13.84;49.49;98697.58;1814483;79;21394;-60
2022/04/07 05:42:37;;;;;;;4.33;3.92;;;;;;;13.84;49.48;98694.91;1814786;79;21102;-60
2022/04/07 05:45:04;;;;;;;6.03;4.58;;;;;;;13.87;49.48;98701.17;1795862;79;21576;-60
2022/04/07 05:47:32;;;;;;;5.15;4.33;;;;;;;13.89;49.47;98699.09;1782473;79;21506;-59
2022/04/07 05:49:58;;;;;;;4.65;4.12;;;;;;;13.91;49.46;98704.23;1755669;80;21169;-60
2022/04/07 05:52:25;;;;;;;5.17;4.42;;;;;;;13.93;49.44;98704.83;1782767;80;21065;-61
2022/04/07 05:54:51;;;;;;;5.47;4.72;;;;;;;13.94;49.45;98708.59;1782468;79;21141;-60
2022/04/07 05:57:18;;;;;;;4.62;4.12;;;;;;;13.96;49.46;98705.23;1782449;80;21464;-59
2022/04/07 05:59:45;;;;;;;4.60;4.10;;;;;;;14.00;49.45;98707.45;1782450;80;21083;-60
2022/04/07 06:02:11;;;;;;;4.30;3.90;;;;;;;14.01;49.45;98706.43;1805010;79;20995;-60
2022/04/07 06:04:40;;;;;;;5.08;4.28;;;;;;;14.03;49.48;98698.48;1814614;78;21077;-59
2022/04/07 06:07:07;;;;;;;4.70;4.17;;;;;;;14.04;49.51;98698.81;1814573;78;21133;-59
2022/04/07 06:09:35;;;;;;;4.70;4.20;;;;;;;14.06;49.48;98702.08;1818445;78;21022;-60
2022/04/07 06:12:02;;;;;;;4.70;4.03;;;;;;;14.08;49.53;98708.02;1825941;78;20982;-60
2022/04/07 06:14:30;;;;;;;4.70;4.17;;;;;;;14.10;49.62;98699.27;1826054;78;21014;-60
2022/04/07 06:16:57;;;;;;;5.28;4.37;;;;;;;14.13;49.57;98708.70;1826219;78;21441;-60
2022/04/07 06:19:25;;;;;;;4.80;3.85;;;;;;;14.13;49.60;98709.50;1824799;78;20986;-60
2022/04/07 06:21:52;;;;;;;5.17;4.15;;;;;;;14.14;49.61;98699.14;1826059;78;20974;-60
2022/04/07 06:24:18;;;;;;;5.12;4.62;;;;;;;14.18;49.61;98697.34;1826018;78;21963;-59
2022/04/07 06:26:45;;;;;;;4.37;3.98;;;;;;;14.20;49.66;98709.47;1826068;78;21068;-60
2022/04/07 06:29:11;;;;;;;5.28;4.35;;;;;;;14.22;49.67;98706.06;1826006;78;21065;-59
2022/04/07 06:31:38;;;;;;;4.87;4.37;;;;;;;14.24;49.64;98709.34;1826012;78;21275;-59
2022/04/07 06:34:05;;;;;;;4.97;3.92;;;;;;;14.25;49.61;98713.63;1825811;78;21062;-60
2022/04/07 06:36:31;;;;;;;4.47;3.92;;;;;;;14.27;49.62;98710.22;1800628;78;21037;-60
2022/04/07 06:38:57;;;;;;;4.30;3.80;;;;;;;14.29;49.54;98704.17;1793825;80;20998;-59
2022/04/07 06:41:24;;;;;;;5.10;4.50;;;;;;;14.31;49.53;98704.77;1793495;80;20989;-60
2022/04/07 06:43:51;;;;;;;5.10;4.22;;;;;;;14.32;49.52;98693.03;1793528;80;21112;-59
2022/04/07 06:46:18;;;;;;;4.62;4.15;;;;;;;14.35;49.48;98696.62;1793451;80;20994;-60
2022/04/07 06:48:45;;;;;;;4.97;4.42;;;;;;;14.38;49.47;98690.53;1793612;80;21077;-60
2022/04/07 06:51:14;;;;;;;4.72;4.03;;;;;;;14.40;49.47;98692.47;1793389;80;20982;-59
2022/04/07 06:53:40;;;;;;;4.83;4.25;;;;;;;14.42;49.51;98694.41;1794656;78;21032;-61
2022/04/07 06:56:08;;;;;;;4.65;3.87;;;;;;;14.44;49.50;98692.33;1793537;80;22105;-60
2022/04/07 06:58:36;;;;;;;4.47;3.98;;;;;;;14.45;49.46;98698.80;1793531;80;21552;-59
2022/04/07 07:01:02;;;;;;;4.75;3.85;;;;;;;14.48;49.47;98697.53;1802054;78;20990;-60
2022/04/07 07:03:29;;;;;;;4.78;4.08;;;;;;;14.49;49.46;98685.29;1826079;78;21061;-61
2022/04/07 07:05:58;;;;;;;5.20;4.03;;;;;;;14.51;49.44;98690.42;1825937;78;21037;-59
2022/04/07 07:08:26;;;;;;;4.53;3.83;;;;;;;14.54;49.44;98693.48;1826028;78;20962;-60
2022/04/07 07:10:54;;;;;;;4.37;3.98;;;;;;;14.55;49.42;98685.75;1815704;77;20994;-60
2022/04/07 07:13:22;;;;;;;4.85;4.10;;;;;;;14.58;49.40;98683.70;1814455;79;21022;-60
2022/04/07 07:15:48;;;;;;;4.70;3.83;;;;;;;14.59;49.39;98668.78;1814558;79;22093;-60
2022/04/07 07:18:16;;;;;;;4.40;3.92;;;;;;;14.61;49.34;98670.72;1814516;79;21038;-60
2022/04/07 07:20:43;;;;;;;4.62;3.90;;;;;;;14.65;49.35;98675.11;1814576;79;21107;-59
2022/04/07 07:23:09;;;;;;;4.72;3.75;;;;;;;14.65;49.29;98679.92;1814573;78;21523;-61
2022/04/07 07:25:36;;;;;;;4.17;3.62;;;;;;;14.68;49.27;98671.48;1814519;79;20967;-59
2022/04/07 07:28:04;;;;;;;3.98;3.33;;;;;;;14.70;49.21;98665.39;1814111;79;21057;-60
2022/04/07 07:30:31;;;;;;;4.42;3.65;;;;;;;14.72;49.23;98663.31;1814483;78;21075;-61
2022/04/07 07:32:58;;;;;;;3.95;3.42;;;;;;;14.74;49.15;98657.22;1814412;79;21133;-59
2022/04/07 07:35:25;;;;;;;4.40;3.72;;;;;;;14.76;49.10;98655.67;1814594;78;21474;-59
2022/04/07 07:38:03;;;;;;;4.37;3.98;;;;;;;14.79;49.08;98653.06;1813557;79;21038;-60
2022/04/07 07:40:29;;;;;;;4.42;3.75;;;;;;;14.81;49.00;98644.30;1809981;78;21012;-60
2022/04/07 07:42:56;;;;;;;4.78;3.80;;;;;;;14.83;48.92;98656.39;1801113;79;21092;-59
2022/04/07 07:45:24;;;;;;;3.77;3.27;;;;;;;14.85;48.87;98664.20;1782356;80;21224;-60
2022/04/07 07:47:53;;;;;;;4.00;3.60;;;;;;;14.87;48.81;98650.09;1782257;80;20971;-60
2022/04/07 07:50:21;;;;;;;3.70;3.40;;;;;;;14.90;48.73;98652.33;1782651;80;21553;-60
2022/04/07 07:52:48;;;;;;;3.87;3.47;;;;;;;14.91;48.70;98645.92;1782601;80;21042;-60
2022/04/07 07:55:14;;;;;;;3.72;3.27;;;;;;;14.94;48.68;98646.83;1782474;79;21025;-59
2022/04/07 07:57:42;;;;;;;3.95;3.55;;;;;;;14.96;48.63;98635.39;1782566;79;22197;-59
2022/04/07 08:00:10;;;;;;;4.33;3.27;;;;;;;14.99;48.62;98632.77;1783571;79;21057;-60
2022/04/07 08:02:38;;;;;;;3.45;3.12;;;;;;;15.00;48.58;98628.55;1812148;79;21088;-60
2022/04/07 08:05:08;;;;;;;3.80;3.40;;;;;;;15.03;48.56;98620.62;1814529;79;21025;-60
2022/04/07 08:07:40;;;;;;;4.47;3.05;;;;;;;15.04;48.54;98620.38;1814679;79;21146;-59
2022/04/07 08:10:07;;;;;;;3.98;3.42;;;;;;;15.06;48.57;98632.99;1818132;78;21302;-60
2022/04/07 08:12:34;;;;;;;3.35;3.05;;;;;;;15.08;48.55;98620.21;1826053;78;21409;-59
2022/04/07 08:15:01;;;;;;;3.35;3.02;;;;;;;15.10;48.55;98616.82;1826001;78;21431;-59
2022/04/07 08:17:27;;;;;;;4.08;3.47;;;;;;;15.13;48.58;98612.88;1815700;78;20986;-59
2022/04/07 08:19:54;;;;;;;3.35;2.83;;;;;;;15.14;48.56;98608.64;1793643;80;21184;-61
2022/04/07 08:22:22;;;;;;;4.12;3.50;;;;;;;15.17;48.61;98618.59;1793691;79;21025;-60
2022/04/07 08:24:49;;;;;;;3.30;3.00;;;;;;;15.20;48.65;98611.44;1793498;79;21013;-60
2022/04/07 08:27:15;;;;;;;4.15;3.12;;;;;;;15.22;48.70;98599.98;1793632;80;21006;-60
2022/04/07 08:29:42;;;;;;;3.17;2.80;;;;;;;15.24;48.71;98608.09;1793665;80;20983;-60
2022/04/07 08:32:09;;;;;;;3.50;3.20;;;;;;;15.26;48.76;98588.63;1793675;80;21017;-60
2022/04/07 08:34:36;;;;;;;3.67;3.30;;;;;;;15.29;48.78;98602.06;1794735;78;21148;-60
2022/04/07 08:37:04;;;;;;;3.15;2.85;;;;;;;15.31;48.81;98594.62;1793565;79;21470;-59
2022/04/07 08:39:30;;;;;;;3.45;3.00;;;;;;;15.32;48.83;98609.11;1793711;80;21021;-59
2022/04/07 08:41:58;;;;;;;3.40;2.80;;;;;;;15.36;48.87;98608.67;1806872;78;21466;-60
2022/04/07 08:44:31;;;;;;;3.60;3.30;;;;;;;15.38;48.92;98575.81;1826075;78;21061;-60
2022/04/07 08:46:56;;;;;;;3.35;3.00;;;;;;;15.39;48.95;98580.91;1825887;78;21139;-60
2022/04/07 08:49:24;;;;;;;3.27;2.98;;;;;;;15.42;49.04;98576.45;1826084;78;20998;-60
2022/04/07 08:51:52;;;;;;;3.33;3.00;;;;;;;15.45;49.08;98600.09;1809759;78;21465;-60
2022/04/07 08:54:20;;;;;;;4.05;3.05;;;;;;;15.48;49.16;98574.20;1793656;80;21529;-60
2022/04/07 08:56:48;;;;;;;3.33;2.85;;;;;;;15.50;49.31;98606.91;1793685;80;21031;-60
2022/04/07 08:59:16;;;;;;;3.70;3.27;;;;;;;15.53;49.43;98568.18;1793542;79;21029;-59
2022/04/07 09:01:44;;;;;;;3.55;3.17;;;;;;;15.57;49.47;98575.20;1822120;78;21069;-59
2022/04/07 09:04:13;;;;;;;3.58;3.22;;;;;;;15.60;49.56;98584.94;1826181;78;20978;-60
2022/04/07 09:06:42;;;;;;;3.83;2.95;;;;;;;15.63;49.66;98566.28;1826142;78;21014;-60
2022/04/07 09:09:19;;;;;;;3.60;2.90;;;;;;;15.64;49.77;98558.00;1824746;78;21017;-59
2022/04/07 09:11:46;;;;;;;3.33;3.08;;;;;;;15.69;49.89;98566.70;1815965;78;21194;-59
2022/04/07 09:14:14;;;;;;;3.27;2.92;;;;;;;15.71;49.98;98565.41;1814572;78;21474;-59
2022/04/07 09:16:42;;;;;;;3.55;2.77;;;;;;;15.75;50.13;98560.45;1752876;79;20983;-60
2022/04/07 09:19:09;;;;;;;3.25;2.85;;;;;;;15.80;50.16;98542.34;1814458;78;21029;-60
2022/04/07 09:21:38;;;;;;;3.87;3.20;;;;;;;15.84;50.16;98551.53;1814557;78;21430;-60
2022/04/07 09:24:07;;;;;;;3.15;2.83;;;;;;;15.88;50.20;98547.38;1814452;79;22224;-59
2022/04/07 09:26:39;;;;;;;3.17;2.87;;;;;;;15.92;50.17;98535.95;1813564;78;21486;-60
2022/04/07 09:29:10;;;;;;;3.12;2.83;;;;;;;15.97;50.07;98521.05;1814399;79;21516;-59
2022/04/07 09:31:39;;;;;;;3.25;2.50;;;;;;;16.03;50.06;98523.63;1814658;78;21010;-59
2022/04/07 09:34:06;;;;;;;3.08;2.60;;;;;;;16.08;50.05;98513.53;1814615;78;21031;-59
2022/04/07 09:36:34;;;;;;;2.77;2.55;;;;;;;16.14;49.99;98527.86;1814521;79;21235;-60
2022/04/07 09:39:01;;;;;;;5.22;3.17;;;;;;;16.19;49.95;98507.36;1814391;78;21066;-60
2022/04/07 09:41:30;;;;;;;3.00;2.70;;;;;;;16.25;49.96;98512.31;1814699;79;21030;-60
2022/04/07 09:43:58;;;;;;;3.22;2.90;;;;;;;16.31;49.97;98492.07;1813388;79;20990;-61
2022/04/07 09:46:27;;;;;;;3.35;2.70;;;;;;;16.39;49.95;98496.78;1814935;79;21002;-59
2022/04/07 09:49:09;;;;;;;2.72;2.40;;;;;;;16.45;49.94;98499.85;1814534;79;21191;-59
2022/04/07 09:51:48;;;;;;;2.77;2.58;;;;;;;16.53;49.92;98508.05;1809126;79;21052;-60
2022/04/07 09:54:16;;;;;;;3.52;2.77;;;;;;;16.59;49.91;98475.77;1802794;79;21025;-60
2022/04/07 09:56:47;;;;;;;3.02;2.70;;;;;;;16.67;49.88;98471.89;1803220;79;21001;-60
2022/04/07 09:59:16;;;;;;;2.77;2.47;;;;;;;16.73;49.88;98475.45;1798464;79;21029;-64
2022/04/07 10:01:43;;;;;;;2.87;2.45;;;;;;;16.81;49.88;98485.83;1782445;79;21774;-59
2022/04/07 10:04:10;;;;;;;3.17;2.87;;;;;;;16.88;49.87;98461.02;1782300;80;21099;-60
2022/04/07 10:06:39;;;;;;;3.00;2.70;;;;;;;16.96;49.87;98450.44;1782446;80;21021;-60
2022/04/07 10:09:09;;;;;;;2.83;2.45;;;;;;;17.03;49.83;98445.20;1782404;80;21029;-61
2022/04/07 10:11:36;;;;;;;2.90;2.60;;;;;;;17.10;49.79;98458.48;1782365;80;21069;-60
2022/04/07 10:14:03;;;;;;;3.85;3.10;;;;;;;17.18;49.71;98443.32;1782363;80;21248;-59
2022/04/07 10:16:32;;;;;;;2.77;2.37;;;;;;;17.26;49.68;98440.23;1783389;79;21042;-59
2022/04/07 10:19:11;;;;;;;2.25;2.05;;;;;;;17.34;49.60;98426.13;1782409;80;21013;-60
2022/04/07 10:22:15;;;;;;;2.72;2.42;;;;;;;17.41;49.59;98416.86;1782391;80;20978;-60
2022/04/07 10:24:50;;;;;;;2.87;2.45;;;;;;;17.48;49.56;98434.96;1771635;79;21101;-59
2022/04/07 10:27:22;;;;;;;3.52;2.80;;;;;;;17.58;49.46;98430.81;1782389;79;21188;-60
2022/04/07 10:30:10;;;;;;;3.02;2.80;;;;;;;17.66;49.45;98421.80;1782499;80;20990;-60
2022/04/07 10:32:46;;;;;;;3.02;2.70;;;;;;;17.76;49.38;98412.27;1782800;79;21018;-60
2022/04/07 10:35:35;;;;;;;3.67;2.40;;;;;;;17.85;49.29;98422.91;1782390;79;21046;-59
2022/04/07 10:38:05;;;;;;;2.52;2.33;;;;;;;17.93;49.23;98406.34;1782775;79;21069;-60
2022/04/07 10:40:44;;;;;;;3.15;2.75;;;;;;;18.01;49.16;98408.59;1782756;79;21127;-60
2022/04/07 10:43:13;;;;;;;2.80;2.47;;;;;;;18.08;49.11;98410.58;1811469;79;20991;-60
2022/04/07 10:45:52;;;;;;;2.60;2.40;;;;;;;18.18;49.07;98394.30;1814497;78;21041;-60
2022/04/07 10:48:30;;;;;;;2.60;2.40;;;;;;;18.25;49.02;98403.80;1813682;78;20999;-59
2022/04/07 10:51:03;;;;;;;2.40;2.20;;;;;;;18.34;48.97;98383.20;1813562;79;21014;-59
2022/04/07 10:53:34;;;;;;;;;;;;;;;18.41;48.96;98394.57;1817309;79;21175;-59
2022/04/07 10:56:12;;;;;;;3.62;2.27;;;;;;;18.51;48.93;98400.59;1809807;79;20193;-60
2022/04/07 10:58:45;;;;;;;2.52;2.33;;;;;;;18.57;48.85;98413.02;1812770;79;21572;-60
2022/04/07 11:01:15;;;;;;;2.85;2.55;;;;;;;18.65;48.78;98392.39;1814864;79;21030;-59
2022/04/07 11:04:22;;;;;;;2.40;2.20;;;;;;;18.73;48.78;98395.16;1812910;79;20990;-62
2022/04/07 11:07:19;;;;;;;2.45;2.25;;;;;;;18.81;48.74;98414.39;1812547;79;21230;-60
2022/04/07 11:10:02;;;;;;;3.02;2.72;;;;;;;18.93;48.71;98387.32;1782373;80;21044;-62
2022/04/07 11:12:34;;;;;;;3.72;3.35;;;;;;;19.03;48.67;98378.52;1792841;79;20985;-60
2022/04/07 11:15:16;;;;;;;2.67;2.47;;;;;;;19.11;48.65;98373.20;1793743;79;21006;-60
2022/04/07 11:17:51;;;;;;;2.55;2.35;;;;;;;19.21;48.75;98376.77;1793642;80;21076;-60
2022/04/07 11:20:22;;;;;;;2.60;2.40;;;;;;;19.31;48.75;98386.00;1793580;80;21355;-60
2022/04/07 11:23:06;;;;;;;2.40;2.20;;;;;;;19.41;48.77;98372.59;1792940;79;21390;-59
2022/04/07 11:25:39;;;;;;;2.33;2.12;;;;;;;19.51;48.76;98370.50;1794709;78;21545;-60
2022/04/07 11:28:22;;;;;;;2.50;2.30;;;;;;;19.61;48.53;98372.73;1793494;80;21076;-61
2022/04/07 11:31:02;;;;;;;2.65;2.40;;;;;;;19.68;48.44;98373.84;1793677;80;21001;-59
2022/04/07 11:33:38;;;;;;;2.95;2.50;;;;;;;19.79;48.33;98370.16;1793934;79;21009;-60
2022/04/07 11:36:33;;;;;;;2.77;2.42;;;;;;;19.88;48.28;98354.32;1793710;80;21037;-61
2022/04/07 11:39:18;;;;;;;2.65;2.40;;;;;;;19.99;48.18;98369.47;1793905;80;21049;-61
2022/04/07 11:41:45;;;;;;;2.50;2.30;;;;;;;20.13;48.06;98364.39;1805147;78;21065;-59
2022/04/07 11:44:12;;;;;;;2.52;2.33;;;;;;;20.23;47.96;98369.81;1826232;78;21494;-59